Time;durP1;ratioP1;P1;durP2;ratioP2;P2;SDS_P1;SDS_P2;PMS_P1;PMS_P2;Temp;Humidity;BMP_temperature;BMP_pressure;BME280_temperature;BME280_humidity;BME280_pressure;Samples;Min_cycle;Max_cycle;Signal;HPM_P1;HPM_P2
2023/05/25 00:02:08;;;;;;;10.30;4.70;;;18.10;99.90;;;;;;5081799;28;20369;-72
2023/05/25 00:04:35;;;;;;;9.95;3.95;;;18.00;99.90;;;;;;5093664;28;20043;-72
2023/05/25 00:07:02;;;;;;;7.70;4.07;;;17.90;99.90;;;;;;5094130;28;20036;-73
2023/05/25 00:09:28;;;;;;;;;;;17.90;99.90;;;;;;5094160;28;20075;-73
2023/05/25 00:11:54;;;;;;;7.95;4.35;;;17.90;99.90;;;;;;5093302;28;20070;-73
2023/05/25 00:14:21;;;;;;;8.00;4.32;;;17.80;99.90;;;;;;5093383;28;20032;-72
2023/05/25 00:16:47;;;;;;;6.72;4.07;;;17.80;99.90;;;;;;5093776;28;20028;-72
2023/05/25 00:19:14;;;;;;;7.43;4.15;;;17.70;99.90;;;;;;5093337;28;20450;-73
2023/05/25 00:21:41;;;;;;;9.30;4.70;;;17.70;99.90;;;;;;5092610;28;20077;-72
2023/05/25 00:24:07;;;;;;;9.13;4.90;;;17.70;99.90;;;;;;5093390;28;20077;-74
2023/05/25 00:26:34;;;;;;;9.45;4.47;;;17.60;99.90;;;;;;5093227;28;20020;-73
2023/05/25 00:29:00;;;;;;;8.77;3.92;;;17.70;99.90;;;;;;5093393;28;20024;-72
2023/05/25 00:31:27;;;;;;;11.13;4.55;;;17.70;99.90;;;;;;5093537;28;20047;-73
2023/05/25 00:33:53;;;;;;;8.15;3.95;;;17.70;99.90;;;;;;5093087;28;20053;-73
2023/05/25 00:36:19;;;;;;;9.25;4.35;;;17.70;99.90;;;;;;5093402;28;20074;-72
2023/05/25 00:38:45;;;;;;;7.70;4.50;;;17.80;99.90;;;;;;5093077;28;20084;-72
2023/05/25 00:41:18;;;;;;;6.43;4.40;;;17.80;99.90;;;;;;5092854;28;20332;-71
2023/05/25 00:43:47;;;;;;;10.05;4.07;;;17.90;99.90;;;;;;5074859;28;20440;-72
2023/05/25 00:46:16;;;;;;;11.02;4.35;;;17.80;99.90;;;;;;5092897;28;20111;-72
2023/05/25 00:48:43;;;;;;;5.53;3.78;;;17.80;99.90;;;;;;5093112;28;20029;-73
2023/05/25 00:51:10;;;;;;;7.65;4.53;;;17.80;99.90;;;;;;5093131;28;20097;-72
2023/05/25 00:53:36;;;;;;;6.68;4.10;;;17.90;99.90;;;;;;5092752;28;20058;-73
2023/05/25 00:56:09;;;;;;;7.53;4.18;;;17.90;99.90;;;;;;5093087;28;20036;-72
2023/05/25 00:58:38;;;;;;;8.55;4.32;;;17.90;99.90;;;;;;5092789;28;20019;-72
2023/05/25 01:01:10;;;;;;;11.48;5.40;;;17.80;99.90;;;;;;5093014;28;20103;-73
2023/05/25 01:03:40;;;;;;;6.55;4.35;;;17.80;99.90;;;;;;5092926;28;20459;-73
2023/05/25 01:06:14;;;;;;;8.05;4.40;;;17.90;99.90;;;;;;5092830;28;20028;-73
2023/05/25 01:08:46;;;;;;;6.55;4.15;;;17.80;99.90;;;;;;5092875;28;20061;-73
2023/05/25 01:11:13;;;;;;;9.52;4.55;;;17.90;99.90;;;;;;5092659;28;20031;-73
2023/05/25 01:13:41;;;;;;;7.63;3.85;;;17.80;99.90;;;;;;5092322;28;20028;-72
2023/05/25 01:16:08;;;;;;;7.25;4.47;;;17.70;99.90;;;;;;5092743;28;20036;-72
2023/05/25 01:18:36;;;;;;;7.80;3.92;;;17.70;99.90;;;;;;5092222;28;20516;-73
2023/05/25 01:21:16;;;;;;;8.43;4.07;;;17.70;99.90;;;;;;5092589;28;20028;-72
2023/05/25 01:23:59;;;;;;;8.60;4.30;;;17.70;99.90;;;;;;5092670;28;20012;-73
2023/05/25 01:26:28;;;;;;;6.45;4.07;;;17.70;99.90;;;;;;5092460;28;20020;-73
2023/05/25 01:28:56;;;;;;;9.00;4.25;;;17.70;99.90;;;;;;5092113;28;20347;-71
2023/05/25 01:31:23;;;;;;;6.97;4.07;;;17.70;99.90;;;;;;5092004;28;20078;-73
2023/05/25 01:33:51;;;;;;;7.78;4.30;;;17.70;99.90;;;;;;5092410;28;20028;-72
2023/05/25 01:36:18;;;;;;;9.35;4.05;;;17.70;99.90;;;;;;5092022;28;20100;-69
2023/05/25 01:38:44;;;;;;;8.52;4.45;;;17.70;99.90;;;;;;5092294;28;20427;-72
2023/05/25 01:41:10;;;;;;;6.22;4.20;;;17.60;99.90;;;;;;5091918;28;20039;-73
2023/05/25 01:43:37;;;;;;;7.07;4.07;;;17.60;99.90;;;;;;5091701;28;20047;-72
2023/05/25 01:46:38;;;;;;;7.35;4.10;;;17.60;99.90;;;;;;5091872;28;20028;-72
2023/05/25 01:49:16;;;;;;;11.23;4.22;;;17.60;99.90;;;;;;5092329;28;20099;-72
2023/05/25 01:51:54;;;;;;;7.25;4.32;;;17.60;99.90;;;;;;5091902;28;20233;-73
2023/05/25 01:54:25;;;;;;;8.95;4.30;;;17.60;99.90;;;;;;5092120;28;20047;-73
2023/05/25 01:56:53;;;;;;;12.25;4.35;;;17.60;99.90;;;;;;5091613;28;20024;-73
2023/05/25 01:59:21;;;;;;;7.32;3.92;;;17.50;99.90;;;;;;5073275;28;20105;-72
2023/05/25 02:01:48;;;;;;;7.28;3.83;;;17.60;99.90;;;;;;5091541;28;20038;-71
2023/05/25 02:04:17;;;;;;;8.55;4.15;;;17.60;99.90;;;;;;5091962;28;20060;-72
2023/05/25 02:06:47;;;;;;;9.10;4.30;;;17.60;99.90;;;;;;5091577;28;20107;-72
2023/05/25 02:09:13;;;;;;;10.15;4.45;;;17.50;99.90;;;;;;5091447;28;20099;-73
2023/05/25 02:11:39;;;;;;;10.35;4.60;;;17.60;99.90;;;;;;5091273;28;20127;-73
2023/05/25 02:14:05;;;;;;;6.03;3.92;;;17.50;99.90;;;;;;5091759;28;20028;-72
2023/05/25 02:16:31;;;;;;;9.00;4.30;;;17.60;99.90;;;;;;5091326;28;20036;-72
2023/05/25 02:18:57;;;;;;;7.30;3.72;;;17.60;99.90;;;;;;5091209;28;20123;-72
2023/05/25 02:21:23;;;;;;;7.93;3.75;;;17.50;99.90;;;;;;5091633;28;20028;-71
2023/05/25 02:23:49;;;;;;;8.82;4.15;;;17.50;99.90;;;;;;5091391;28;20024;-72
2023/05/25 02:26:15;;;;;;;10.23;4.15;;;17.50;99.90;;;;;;5091395;28;20031;-74
2023/05/25 02:28:41;;;;;;;9.57;3.85;;;17.50;99.90;;;;;;5090995;28;20077;-73
2023/05/25 02:31:07;;;;;;;9.20;3.85;;;17.60;99.90;;;;;;5091276;28;20039;-72
2023/05/25 02:33:34;;;;;;;10.95;4.15;;;17.50;99.90;;;;;;5090592;28;20028;-73
2023/05/25 02:36:00;;;;;;;8.45;4.18;;;17.50;99.90;;;;;;5091126;28;20071;-72
2023/05/25 02:38:26;;;;;;;7.22;3.85;;;17.50;99.90;;;;;;5091020;28;20074;-72
2023/05/25 02:40:52;;;;;;;5.90;3.78;;;17.50;99.90;;;;;;5090657;28;20498;-71
2023/05/25 02:43:18;;;;;;;8.95;4.10;;;17.50;99.90;;;;;;5090652;28;20066;-73
2023/05/25 02:45:44;;;;;;;10.82;3.97;;;17.50;99.90;;;;;;5092460;28;20032;-74
2023/05/25 02:48:10;;;;;;;8.75;4.07;;;17.50;99.90;;;;;;5094938;28;20024;-73
2023/05/25 02:50:36;;;;;;;10.45;4.30;;;17.50;99.90;;;;;;5094941;28;20463;-72
2023/05/25 02:53:03;;;;;;;13.50;3.97;;;17.40;99.90;;;;;;5076252;28;20020;-73
2023/05/25 02:55:29;;;;;;;;;;;17.40;99.90;;;;;;5095154;28;20100;-72
2023/05/25 02:57:55;;;;;;;8.70;3.75;;;17.40;99.90;;;;;;5094674;28;20359;-72
2023/05/25 03:00:22;;;;;;;7.60;4.38;;;17.40;99.90;;;;;;5094256;28;20020;-70
2023/05/25 03:02:48;;;;;;;;;;;17.40;99.90;;;;;;5093388;28;20051;-72
2023/05/25 03:05:15;;;;;;;12.18;4.72;;;17.40;99.90;;;;;;5093571;28;19954;-72
2023/05/25 03:07:42;;;;;;;;;;;17.40;99.90;;;;;;5095401;28;20020;-72
2023/05/25 03:10:08;;;;;;;;;;;17.40;99.90;;;;;;5094812;28;19956;-72
2023/05/25 03:12:34;;;;;;;5.28;3.55;;;17.40;99.90;;;;;;5093772;28;20352;-70
2023/05/25 03:15:00;;;;;;;8.20;4.25;;;17.50;99.90;;;;;;5092305;28;20479;-71
2023/05/25 03:17:26;;;;;;;7.93;4.07;;;17.40;99.90;;;;;;5094306;28;20028;-71
2023/05/25 03:19:52;;;;;;;6.78;4.40;;;17.40;99.90;;;;;;5092457;28;20108;-72
2023/05/25 03:22:18;;;;;;;12.70;4.15;;;17.40;99.90;;;;;;5090388;28;20024;-70
2023/05/25 03:24:45;;;;;;;8.83;3.90;;;17.30;99.90;;;;;;5080684;28;20543;-70
2023/05/25 03:27:12;;;;;;;11.32;5.28;;;17.30;99.90;;;;;;5092278;28;20300;-71
2023/05/25 03:29:38;;;;;;;8.38;3.92;;;17.30;99.90;;;;;;5080384;28;20016;-71
2023/05/25 03:32:04;;;;;;;7.43;3.83;;;17.20;99.90;;;;;;5094109;28;20031;-70
2023/05/25 03:34:33;;;;;;;6.20;3.80;;;17.20;99.90;;;;;;5093985;28;20028;-71
2023/05/25 03:37:02;;;;;;;8.45;3.90;;;17.20;99.90;;;;;;5093843;28;20038;-70
2023/05/25 03:39:28;;;;;;;8.55;3.92;;;17.10;99.90;;;;;;5094074;28;20039;-71
2023/05/25 03:41:54;;;;;;;8.50;4.13;;;17.10;99.90;;;;;;5094528;28;20020;-71
2023/05/25 03:44:20;;;;;;;11.30;4.05;;;17.10;99.90;;;;;;5095205;28;20107;-71
2023/05/25 03:46:47;;;;;;;7.95;4.40;;;17.00;99.90;;;;;;5095205;28;20463;-72
2023/05/25 03:49:13;;;;;;;6.72;4.15;;;17.00;99.90;;;;;;5095617;28;20031;-71
2023/05/25 03:51:42;;;;;;;7.55;4.03;;;16.90;99.90;;;;;;5095219;28;20027;-71
2023/05/25 03:54:08;;;;;;;10.35;4.10;;;17.00;99.90;;;;;;5094820;28;20028;-72
2023/05/25 03:56:34;;;;;;;6.13;3.70;;;17.00;99.90;;;;;;5094243;28;20063;-73
2023/05/25 03:59:00;;;;;;;7.22;4.03;;;16.90;99.90;;;;;;5094430;28;20017;-72
2023/05/25 04:01:28;;;;;;;7.90;4.05;;;16.80;99.90;;;;;;5094861;28;20028;-71
2023/05/25 04:03:55;;;;;;;10.00;3.95;;;16.70;99.90;;;;;;5094776;28;20067;-72
2023/05/25 04:06:24;;;;;;;7.43;4.18;;;16.60;99.90;;;;;;5095245;28;20467;-72
2023/05/25 04:08:51;;;;;;;7.90;3.90;;;16.60;99.90;;;;;;5095018;28;20040;-71
2023/05/25 04:11:17;;;;;;;;;;;16.60;99.90;;;;;;5095331;28;20379;-72
2023/05/25 04:13:43;;;;;;;7.55;3.95;;;16.60;99.90;;;;;;5094541;28;19912;-72
2023/05/25 04:16:11;;;;;;;7.38;3.72;;;16.70;99.90;;;;;;5076075;28;20085;-72
2023/05/25 04:18:37;;;;;;;6.13;4.22;;;16.60;99.90;;;;;;5094851;28;20226;-70
2023/05/25 04:21:03;;;;;;;8.75;4.28;;;16.70;99.90;;;;;;5076866;28;20375;-72
2023/05/25 04:23:30;;;;;;;6.65;3.97;;;16.70;99.90;;;;;;5095075;28;20054;-72
2023/05/25 04:25:56;;;;;;;9.35;4.53;;;16.60;99.90;;;;;;5095481;28;20149;-71
2023/05/25 04:28:22;;;;;;;9.93;4.68;;;16.60;99.90;;;;;;5095229;28;20046;-71
2023/05/25 04:30:48;;;;;;;9.13;4.88;;;16.70;99.90;;;;;;5095394;28;20030;-73
2023/05/25 04:33:16;;;;;;;6.45;3.78;;;16.70;99.90;;;;;;5094759;28;20119;-71
2023/05/25 04:35:42;;;;;;;10.70;3.92;;;16.80;99.90;;;;;;5094888;28;20385;-71
2023/05/25 04:38:11;;;;;;;9.95;4.30;;;16.90;99.90;;;;;;5094753;28;20032;-72
2023/05/25 04:40:40;;;;;;;7.28;3.92;;;17.00;99.90;;;;;;5094791;28;20020;-72
2023/05/25 04:43:08;;;;;;;8.90;4.10;;;17.00;99.90;;;;;;5094185;28;20531;-71
2023/05/25 04:45:34;;;;;;;8.63;3.90;;;17.10;99.90;;;;;;5075989;28;20046;-72
2023/05/25 04:48:01;;;;;;;13.35;4.43;;;17.30;99.90;;;;;;5094603;28;20077;-71
2023/05/25 04:50:28;;;;;;;9.48;4.03;;;17.40;99.90;;;;;;5094617;28;20020;-71
2023/05/25 04:52:54;;;;;;;7.53;3.85;;;17.40;99.90;;;;;;5075409;28;20032;-71
2023/05/25 04:55:20;;;;;;;8.73;3.72;;;17.70;99.90;;;;;;5093703;28;20491;-70
2023/05/25 04:57:46;;;;;;;7.15;3.90;;;17.80;99.90;;;;;;5094041;28;20046;-71
2023/05/25 05:00:14;;;;;;;6.78;3.85;;;17.80;99.90;;;;;;5094219;28;20020;-71
2023/05/25 05:02:40;;;;;;;6.63;3.53;;;18.10;99.90;;;;;;5093539;28;20043;-72
2023/05/25 05:05:06;;;;;;;11.07;3.90;;;18.50;99.90;;;;;;5093776;28;20020;-71
2023/05/25 05:07:32;;;;;;;10.30;3.90;;;18.80;99.90;;;;;;5093540;28;20028;-71
2023/05/25 05:09:59;;;;;;;7.57;3.80;;;19.20;99.90;;;;;;5092739;28;20043;-71
2023/05/25 05:12:25;;;;;;;11.95;3.58;;;19.50;99.90;;;;;;5093209;28;20059;-72
2023/05/25 05:14:51;;;;;;;7.85;3.25;;;19.60;99.90;;;;;;5093357;28;20095;-71
2023/05/25 05:17:17;;;;;;;;;;;19.70;99.90;;;;;;5075138;28;20036;-71
2023/05/25 05:19:44;;;;;;;7.22;3.33;;;19.60;99.90;;;;;;5093343;28;19904;-72
2023/05/25 05:22:12;;;;;;;8.70;3.38;;;19.10;99.90;;;;;;5075009;28;20111;-72
2023/05/25 05:24:38;;;;;;;8.23;4.13;;;19.10;99.90;;;;;;5093520;28;20420;-72
2023/05/25 05:27:04;;;;;;;11.68;4.13;;;19.30;99.90;;;;;;5093302;28;20024;-71
2023/05/25 05:29:30;;;;;;;11.52;3.67;;;19.40;99.90;;;;;;5074274;28;20364;-70
2023/05/25 05:31:56;;;;;;;7.20;4.13;;;19.60;99.90;;;;;;5092750;28;20090;-70
2023/05/25 05:34:22;;;;;;;7.53;3.70;;;19.90;99.90;;;;;;5092960;28;20118;-72
2023/05/25 05:36:49;;;;;;;13.38;3.70;;;20.10;99.90;;;;;;5092795;28;20028;-69
2023/05/25 05:39:15;;;;;;;9.73;3.28;;;20.70;99.90;;;;;;5092178;28;20172;-72
2023/05/25 05:41:43;;;;;;;8.27;3.58;;;21.70;99.90;;;;;;5092491;28;20046;-71
2023/05/25 05:44:11;;;;;;;5.93;3.47;;;22.30;99.90;;;;;;5093039;28;20035;-72
2023/05/25 05:46:37;;;;;;;10.23;3.90;;;22.30;99.90;;;;;;5091997;28;20039;-73
2023/05/25 05:49:03;;;;;;;6.03;3.22;;;22.10;99.90;;;;;;5091947;28;20043;-70
2023/05/25 05:51:30;;;;;;;8.75;2.97;;;22.40;99.90;;;;;;5073411;28;20020;-71
2023/05/25 05:53:56;;;;;;;10.43;3.50;;;21.90;99.90;;;;;;5091907;28;20028;-72
2023/05/25 05:56:22;;;;;;;11.00;3.35;;;22.20;99.90;;;;;;5091461;28;20381;-72
2023/05/25 05:58:50;;;;;;;7.50;3.00;;;22.90;99.90;;;;;;5091725;28;20119;-72
2023/05/25 06:01:16;;;;;;;10.13;3.72;;;23.30;99.90;;;;;;5091164;28;20031;-71
2023/05/25 06:03:44;;;;;;;9.73;3.58;;;22.60;99.90;;;;;;5091729;28;20093;-72
2023/05/25 06:06:10;;;;;;;11.13;3.70;;;22.90;99.90;;;;;;5091072;28;20501;-72
2023/05/25 06:08:37;;;;;;;12.73;3.45;;;22.80;99.90;;;;;;5091296;28;20035;-74
2023/05/25 06:11:03;;;;;;;9.52;3.72;;;23.50;99.90;;;;;;5092122;28;20028;-72
2023/05/25 06:13:29;;;;;;;8.68;3.38;;;23.50;99.90;;;;;;5091397;28;20099;-71
2023/05/25 06:15:55;;;;;;;8.43;3.30;;;24.30;99.90;;;;;;5091632;28;20081;-73
2023/05/25 06:18:21;;;;;;;8.73;3.00;;;25.50;99.90;;;;;;5091697;28;20547;-71
2023/05/25 06:20:47;;;;;;;7.25;3.55;;;26.10;99.90;;;;;;5091192;28;20056;-73
2023/05/25 06:23:13;;;;;;;8.38;3.35;;;26.40;99.90;;;;;;5091747;28;20059;-71
2023/05/25 06:25:40;;;;;;;9.13;3.28;;;25.50;99.90;;;;;;5091551;28;20070;-71
2023/05/25 06:28:06;;;;;;;;;;;25.60;99.90;;;;;;5091698;28;20028;-72
2023/05/25 06:30:32;;;;;;;;;;;25.00;99.90;;;;;;5092071;28;19904;-73
2023/05/25 06:32:58;;;;;;;;;;;24.50;99.90;;;;;;5092358;28;19963;-69
2023/05/25 06:35:24;;;;;;;9.10;2.95;;;23.20;99.90;;;;;;5091830;28;19959;-73
2023/05/25 06:37:50;;;;;;;5.32;2.85;;;23.20;99.90;;;;;;5091985;28;20055;-72
2023/05/25 06:40:17;;;;;;;12.68;3.28;;;24.00;99.90;;;;;;5091756;28;20024;-73
2023/05/25 06:42:43;;;;;;;9.60;3.08;;;25.20;99.90;;;;;;5091873;28;20467;-74
2023/05/25 06:45:10;;;;;;;12.75;3.30;;;26.60;99.90;;;;;;5073368;28;20028;-72
2023/05/25 06:47:36;;;;;;;;;;;27.50;99.90;;;;;;5073604;28;20435;-74
2023/05/25 06:50:02;;;;;;;11.27;3.42;;;26.40;99.90;;;;;;5073439;28;19904;-74
2023/05/25 06:52:29;;;;;;;8.07;3.30;;;25.90;99.90;;;;;;5091620;28;20043;-74
2023/05/25 06:54:55;;;;;;;12.45;3.80;;;24.80;99.90;;;;;;5091404;28;20031;-72
2023/05/25 06:57:23;;;;;;;6.72;3.40;;;24.10;99.90;;;;;;5091677;28;20133;-71
2023/05/25 06:59:49;;;;;;;8.90;3.63;;;24.60;99.90;;;;;;5091859;28;20030;-74
2023/05/25 07:02:15;;;;;;;8.80;3.72;;;24.40;99.90;;;;;;5073402;28;20070;-74
2023/05/25 07:04:42;;;;;;;11.43;2.90;;;24.40;99.90;;;;;;5091640;28;20514;-71
2023/05/25 07:07:08;;;;;;;13.52;6.07;;;24.70;99.90;;;;;;5091503;28;20107;-71
2023/05/25 07:09:34;;;;;;;13.77;6.13;;;23.60;99.90;;;;;;5091995;28;20452;-72
2023/05/25 07:12:01;;;;;;;19.13;10.25;;;22.90;99.90;;;;;;5073181;28;20059;-72
2023/05/25 07:14:27;;;;;;;;;;;23.40;99.90;;;;;;5092313;28;20028;-72
2023/05/25 07:16:53;;;;;;;12.90;3.65;;;23.80;99.90;;;;;;5091243;28;20367;-71
2023/05/25 07:19:19;;;;;;;11.13;5.00;;;23.60;99.90;;;;;;5090971;28;20044;-72
2023/05/25 07:21:45;;;;;;;6.68;3.50;;;23.10;99.90;;;;;;5091325;28;20074;-72
2023/05/25 07:24:11;;;;;;;9.45;4.32;;;23.10;99.90;;;;;;5091733;28;20028;-73
2023/05/25 07:26:37;;;;;;;5.78;3.55;;;22.80;99.90;;;;;;5091492;28;20440;-71
2023/05/25 07:29:03;;;;;;;5.32;3.42;;;22.60;99.90;;;;;;5091337;28;20024;-70
2023/05/25 07:31:29;;;;;;;15.00;4.75;;;23.00;99.90;;;;;;5092472;28;20031;-72
2023/05/25 07:33:55;;;;;;;10.32;4.28;;;23.20;99.90;;;;;;5095435;28;20475;-72
2023/05/25 07:36:23;;;;;;;14.38;6.07;;;24.00;99.90;;;;;;5094864;28;20039;-73
2023/05/25 07:38:50;;;;;;;14.02;5.55;;;24.80;99.90;;;;;;5094520;28;20054;-73
2023/05/25 07:41:16;;;;;;;8.27;3.47;;;24.80;99.90;;;;;;5095069;28;20110;-73
2023/05/25 07:43:42;;;;;;;12.65;3.80;;;25.40;99.90;;;;;;5094730;28;20046;-74
2023/05/25 07:46:08;;;;;;;12.27;4.90;;;25.60;99.90;;;;;;5095159;28;20016;-73
2023/05/25 07:48:35;;;;;;;10.23;3.53;;;25.70;99.90;;;;;;5094996;28;20031;-73
2023/05/25 07:51:01;;;;;;;12.93;3.58;;;25.50;99.90;;;;;;5093878;28;20035;-73
2023/05/25 07:53:27;;;;;;;10.82;4.15;;;24.60;99.90;;;;;;5093720;28;20032;-73
2023/05/25 07:55:53;;;;;;;8.00;3.70;;;24.00;99.90;;;;;;5094009;28;20157;-73
2023/05/25 07:58:19;;;;;;;9.32;3.50;;;24.30;99.90;;;;;;5093569;28;20016;-72
2023/05/25 08:00:45;;;;;;;10.43;3.53;;;24.40;99.90;;;;;;5094711;28;20028;-71
2023/05/25 08:03:12;;;;;;;11.65;4.10;;;24.10;99.90;;;;;;5093598;28;20042;-72
2023/05/25 08:05:38;;;;;;;13.88;3.60;;;24.40;99.90;;;;;;5093904;28;20431;-72
2023/05/25 08:08:04;;;;;;;;;;;25.30;99.90;;;;;;5093929;28;20024;-72
2023/05/25 08:10:31;;;;;;;;;;;26.00;99.90;;;;;;5094090;28;20320;-72
2023/05/25 08:12:57;;;;;;;10.40;3.47;;;26.00;99.90;;;;;;5093608;28;19908;-72
2023/05/25 08:15:23;;;;;;;;;;;25.10;99.90;;;;;;5094406;28;20059;-72
2023/05/25 08:17:50;;;;;;;17.92;4.50;;;25.20;99.90;;;;;;5093683;28;19998;-72
2023/05/25 08:20:16;;;;;;;7.63;3.53;;;25.90;99.90;;;;;;5094967;28;20073;-72
2023/05/25 08:22:42;;;;;;;6.40;3.65;;;26.00;99.90;;;;;;5094301;28;20099;-72
2023/05/25 08:25:09;;;;;;;8.57;3.45;;;24.90;99.90;;;;;;5094285;28;20020;-73
2023/05/25 08:27:35;;;;;;;5.45;2.92;;;24.60;99.90;;;;;;5093929;28;20020;-73
2023/05/25 08:30:02;;;;;;;6.72;2.88;;;24.40;99.90;;;;;;5094774;28;20027;-74
2023/05/25 08:32:28;;;;;;;5.18;3.00;;;24.50;99.90;;;;;;5093788;28;20054;-73
2023/05/25 08:34:54;;;;;;;8.63;3.40;;;24.40;99.90;;;;;;5094341;28;20432;-73
2023/05/25 08:37:22;;;;;;;6.97;2.60;;;24.70;99.90;;;;;;5089473;28;20392;-69
2023/05/25 08:39:48;;;;;;;5.85;2.80;;;24.30;99.90;;;;;;5073778;28;20020;-72
2023/05/25 08:42:14;;;;;;;7.63;2.92;;;24.10;99.90;;;;;;5073403;28;20030;-72
2023/05/25 08:44:41;;;;;;;9.00;3.20;;;23.80;99.90;;;;;;5073399;28;20056;-71
2023/05/25 08:47:07;;;;;;;;;;;23.70;99.90;;;;;;5074157;28;20480;-72
2023/05/25 08:49:37;;;;;;;;;;;24.40;99.90;;;;;;5073115;28;19904;-73
2023/05/25 08:52:07;;;;;;;13.05;5.10;;;24.90;99.90;;;;;;5072086;28;20246;-71
2023/05/25 08:54:37;;;;;;;11.40;4.90;;;24.70;99.90;;;;;;5054064;28;20368;-69
2023/05/25 08:57:28;;;;;;;13.13;5.00;;;24.30;99.90;;;;;;5072176;28;20024;-68
2023/05/25 09:00:10;;;;;;;13.00;5.32;;;24.30;99.90;;;;;;5072083;28;20047;-67
2023/05/25 09:02:57;;;;;;;15.10;6.82;;;24.40;99.90;;;;;;5084158;28;20110;-69
2023/05/25 09:05:23;;;;;;;15.30;6.43;;;24.10;99.90;;;;;;5092856;28;20048;-71
2023/05/25 09:07:58;;;;;;;7.13;3.47;;;23.60;99.90;;;;;;5092642;28;20393;-74
2023/05/25 09:10:26;;;;;;;12.63;4.03;;;23.70;99.90;;;;;;5092613;28;20104;-73
2023/05/25 09:12:53;;;;;;;7.03;3.00;;;23.90;99.90;;;;;;5091871;28;20059;-72
2023/05/25 09:15:19;;;;;;;8.80;4.00;;;24.20;99.90;;;;;;5092564;28;20028;-74
2023/05/25 09:17:46;;;;;;;6.93;3.20;;;24.80;99.90;;;;;;5092329;28;20525;-73
2023/05/25 09:20:14;;;;;;;8.77;3.30;;;25.00;99.90;;;;;;5091585;28;20043;-73
2023/05/25 09:22:41;;;;;;;14.85;3.30;;;24.60;99.90;;;;;;5091960;28;20068;-74
2023/05/25 09:25:09;;;;;;;8.82;2.95;;;24.60;99.90;;;;;;5092468;28;20050;-75
2023/05/25 09:27:36;;;;;;;9.85;3.08;;;24.10;99.90;;;;;;5091847;28;20020;-74
2023/05/25 09:30:04;;;;;;;10.45;3.35;;;23.70;99.90;;;;;;5092253;28;20467;-73
2023/05/25 09:32:30;;;;;;;9.90;3.22;;;23.70;99.90;;;;;;5091271;28;20436;-75
2023/05/25 09:35:09;;;;;;;5.60;2.90;;;23.70;99.90;;;;;;5091866;28;20120;-73
2023/05/25 09:37:38;;;;;;;8.52;3.05;;;23.90;99.90;;;;;;5091760;28;20016;-74
2023/05/25 09:40:09;;;;;;;9.05;3.45;;;24.20;99.90;;;;;;5073472;28;20024;-75
2023/05/25 09:42:37;;;;;;;6.78;3.10;;;24.30;99.90;;;;;;5092100;28;20379;-74
2023/05/25 09:45:04;;;;;;;11.23;3.38;;;24.50;99.90;;;;;;5091642;28;20357;-76
2023/05/25 09:47:30;;;;;;;9.93;3.17;;;24.50;99.90;;;;;;5073390;28;20028;-75
2023/05/25 09:49:57;;;;;;;10.07;3.17;;;24.30;99.90;;;;;;5091795;28;20511;-76
2023/05/25 09:52:24;;;;;;;7.57;3.35;;;24.40;99.90;;;;;;5091653;28;20051;-75
2023/05/25 09:54:51;;;;;;;9.18;3.67;;;24.80;99.90;;;;;;5090957;28;20032;-73
2023/05/25 09:57:20;;;;;;;10.95;3.20;;;25.00;99.90;;;;;;5072664;28;20047;-72
2023/05/25 09:59:47;;;;;;;7.82;3.25;;;25.10;99.90;;;;;;5091347;28;20375;-73
2023/05/25 10:02:13;;;;;;;;;;;24.80;99.90;;;;;;5091517;28;20031;-73
2023/05/25 10:04:40;;;;;;;8.45;3.40;;;25.10;99.90;;;;;;5091679;28;19911;-74
2023/05/25 10:07:07;;;;;;;9.25;3.38;;;25.10;99.90;;;;;;5091614;28;20016;-75
2023/05/25 10:09:42;;;;;;;7.90;3.55;;;24.80;99.90;;;;;;5091271;28;20065;-73
2023/05/25 10:12:08;;;;;;;4.70;2.97;;;25.00;99.90;;;;;;5091675;28;20024;-75
2023/05/25 10:14:37;;;;;;;10.13;3.22;;;24.40;99.90;;;;;;5092061;28;20112;-74
2023/05/25 10:17:07;;;;;;;9.68;3.03;;;24.30;99.90;;;;;;5091851;28;20035;-76
2023/05/25 10:19:44;;;;;;;9.45;3.15;;;24.80;99.90;;;;;;5092600;28;20028;-75
2023/05/25 10:22:15;;;;;;;8.48;3.25;;;24.70;99.90;;;;;;5092167;28;20024;-73
2023/05/25 10:25:16;;;;;;;10.65;3.58;;;24.40;99.90;;;;;;5092293;28;20024;-76
2023/05/25 10:27:51;;;;;;;7.53;3.33;;;24.60;99.90;;;;;;5092117;28;20020;-74
2023/05/25 10:30:18;;;;;;;6.95;3.38;;;24.90;99.90;;;;;;5092427;28;20028;-73
2023/05/25 10:32:46;;;;;;;7.88;3.15;;;25.10;99.90;;;;;;5090992;28;20043;-75
2023/05/25 10:35:13;;;;;;;7.22;3.03;;;25.10;99.90;;;;;;5091171;28;20047;-72
2023/05/25 10:37:40;;;;;;;11.00;3.15;;;24.90;99.90;;;;;;5091554;28;20113;-75
2023/05/25 10:40:09;;;;;;;7.35;3.08;;;24.70;99.90;;;;;;5091816;28;20031;-75
2023/05/25 10:42:37;;;;;;;5.93;3.00;;;25.10;99.90;;;;;;5091166;28;20036;-75
2023/05/25 10:45:08;;;;;;;6.05;3.17;;;25.70;99.90;;;;;;5091200;28;20052;-75
2023/05/25 10:47:43;;;;;;;6.40;3.10;;;25.70;99.90;;;;;;5091358;28;20066;-74
2023/05/25 10:50:20;;;;;;;7.90;3.40;;;25.60;99.90;;;;;;5091069;28;20107;-76
2023/05/25 10:53:06;;;;;;;7.93;2.70;;;26.20;99.90;;;;;;5090733;28;20051;-75
2023/05/25 10:55:50;;;;;;;10.27;2.42;;;26.50;99.90;;;;;;5091073;28;20032;-73
2023/05/25 10:58:18;;;;;;;6.43;2.78;;;26.80;99.90;;;;;;5090946;28;20073;-74
2023/05/25 11:01:01;;;;;;;5.90;2.78;;;26.60;99.90;;;;;;5091005;28;20031;-76
2023/05/25 11:03:54;;;;;;;11.63;2.97;;;26.50;99.90;;;;;;5090597;28;20024;-75
2023/05/25 11:06:39;;;;;;;7.00;3.13;;;26.60;99.90;;;;;;5064756;28;20039;-76
2023/05/25 11:12:27;;;;;;;9.32;3.42;;;27.20;99.90;;;;;;5087062;28;20359;-80
2023/05/25 11:15:15;;;;;;;7.57;2.75;;;26.60;99.90;;;;;;5094454;28;20028;-73
2023/05/25 11:17:57;;;;;;;8.18;2.95;;;26.00;99.90;;;;;;5094822;28;20135;-73
2023/05/25 11:20:32;;;;;;;5.72;2.92;;;26.60;99.90;;;;;;5095676;28;20081;-73
2023/05/25 11:23:23;;;;;;;7.75;2.58;;;26.80;99.90;;;;;;5095922;28;20446;-75
2023/05/25 11:25:49;;;;;;;8.88;2.63;;;26.90;99.90;;;;;;5075721;28;20036;-72
2023/05/25 11:28:15;;;;;;;7.88;2.50;;;27.30;99.90;;;;;;5093982;28;20020;-74
2023/05/25 11:30:44;;;;;;;4.47;2.50;;;26.30;99.90;;;;;;5094551;28;20104;-73
2023/05/25 11:33:11;;;;;;;6.22;2.63;;;26.00;99.90;;;;;;5094067;28;20028;-76
2023/05/25 11:35:39;;;;;;;6.53;2.72;;;26.40;99.90;;;;;;5093946;28;20040;-75
2023/05/25 11:38:07;;;;;;;7.88;2.63;;;27.00;99.90;;;;;;5094306;28;20024;-76
2023/05/25 11:40:33;;;;;;;9.70;2.50;;;27.10;99.90;;;;;;5093952;28;20376;-76
2023/05/25 11:43:01;;;;;;;10.23;2.95;;;26.70;99.90;;;;;;5094020;28;20476;-77
2023/05/25 11:45:32;;;;;;;7.95;2.60;;;25.70;99.90;;;;;;5095754;28;20024;-78
2023/05/25 11:47:59;;;;;;;9.05;2.70;;;25.70;99.90;;;;;;5095312;28;20024;-76
2023/05/25 11:50:26;;;;;;;;;;;26.10;99.90;;;;;;5076600;28;20085;-76
2023/05/25 11:52:53;;;;;;;9.05;2.75;;;26.20;99.90;;;;;;5094405;28;19935;-75
2023/05/25 11:55:20;;;;;;;5.50;3.08;;;25.40;99.90;;;;;;5091554;28;20387;-76
2023/05/25 11:57:46;;;;;;;7.68;2.60;;;25.10;99.90;;;;;;5094259;28;20023;-73
2023/05/25 12:00:23;;;;;;;9.18;2.95;;;24.70;99.90;;;;;;5094126;28;20032;-74
2023/05/25 12:02:49;;;;;;;6.07;2.90;;;24.60;99.90;;;;;;5094618;28;20024;-76
2023/05/25 12:05:15;;;;;;;11.52;2.88;;;24.90;99.90;;;;;;5075826;28;20020;-76
2023/05/25 12:07:47;;;;;;;9.77;2.70;;;24.80;99.90;;;;;;5094283;28;20107;-76
2023/05/25 12:10:17;;;;;;;7.45;2.97;;;24.60;99.90;;;;;;5094867;28;20024;-75
2023/05/25 12:12:45;;;;;;;10.80;3.20;;;25.10;99.90;;;;;;5076185;28;20134;-75
2023/05/25 12:15:22;;;;;;;9.18;2.67;;;25.20;99.90;;;;;;5088323;28;20493;-76
2023/05/25 12:17:50;;;;;;;5.22;2.92;;;25.20;99.90;;;;;;5089203;28;20052;-77
2023/05/25 12:20:17;;;;;;;9.38;3.15;;;25.00;99.90;;;;;;5094715;28;20024;-76
2023/05/25 12:22:44;;;;;;;8.40;3.22;;;24.90;99.90;;;;;;5093770;28;20336;-75
2023/05/25 12:25:12;;;;;;;7.82;3.08;;;24.90;99.90;;;;;;5093771;28;20024;-75
2023/05/25 12:27:39;;;;;;;8.50;3.40;;;24.80;99.90;;;;;;5092917;28;20023;-76
2023/05/25 12:30:08;;;;;;;7.68;2.92;;;25.00;99.90;;;;;;5093093;28;20043;-77
2023/05/25 12:32:49;;;;;;;10.82;2.90;;;24.90;99.90;;;;;;5100561;28;20039;-78
2023/05/25 12:35:15;;;;;;;8.07;2.78;;;25.10;99.90;;;;;;5108262;28;20039;-77
2023/05/25 12:37:41;;;;;;;7.97;3.40;;;24.90;99.90;;;;;;5092247;28;20519;-77
2023/05/25 12:40:19;;;;;;;7.28;2.80;;;25.00;99.90;;;;;;5106580;28;20102;-77
2023/05/25 12:42:54;;;;;;;6.07;2.60;;;24.90;99.90;;;;;;5106889;28;20023;-79
2023/05/25 12:45:20;;;;;;;6.65;2.97;;;24.70;99.90;;;;;;5106519;28;20080;-74
2023/05/25 12:47:46;;;;;;;17.70;3.67;;;24.70;99.90;;;;;;5099592;28;20032;-77
2023/05/25 12:50:14;;;;;;;8.18;3.38;;;24.70;99.90;;;;;;5103488;28;20519;-76
2023/05/25 12:52:45;;;;;;;7.30;2.70;;;24.50;99.90;;;;;;5111319;28;20039;-70
2023/05/25 12:55:26;;;;;;;6.68;3.10;;;24.20;99.90;;;;;;5109612;28;20070;-69
2023/05/25 12:58:02;;;;;;;10.25;3.47;;;24.10;99.90;;;;;;5104925;28;20111;-70